Time;durP1;ratioP1;P1;durP2;ratioP2;P2;SDS_P1;SDS_P2;PMS_P1;PMS_P2;Temp;Humidity;BMP_temperature;BMP_pressure;BME280_temperature;BME280_humidity;BME280_pressure;Samples;Min_cycle;Max_cycle;Signal;HPM_P1;HPM_P2
2021/06/13 00:02:04;;;;;;;7.55;4.65;;;;;;;14.43;96.02;98595.82;1729311;82;20843;-72
2021/06/13 00:04:32;;;;;;;10.35;5.00;;;;;;;14.43;96.02;98591.68;1726125;82;20885;-72
2021/06/13 00:07:00;;;;;;;16.97;5.12;;;;;;;14.41;96.04;98589.86;1733293;82;20941;-74
2021/06/13 00:09:29;;;;;;;11.05;4.87;;;;;;;14.38;95.82;98581.48;1727420;81;21553;-73
2021/06/13 00:11:55;;;;;;;10.50;4.70;;;;;;;14.34;96.00;98581.98;1732359;82;21106;-74
2021/06/13 00:14:22;;;;;;;11.15;4.67;;;;;;;14.33;96.11;98577.05;1732269;82;20980;-74
2021/06/13 00:16:49;;;;;;;7.60;4.58;;;;;;;14.31;96.23;98568.33;1726901;82;20932;-74
2021/06/13 00:19:15;;;;;;;10.18;4.85;;;;;;;14.29;96.22;98567.09;1729555;82;21047;-74
2021/06/13 00:21:42;;;;;;;7.05;4.83;;;;;;;14.27;96.23;98567.46;1722827;81;21016;-74
2021/06/13 00:24:09;;;;;;;9.90;4.40;;;;;;;14.25;96.48;98559.33;1733935;81;21113;-74
2021/06/13 00:26:36;;;;;;;8.38;4.67;;;;;;;14.23;96.69;98558.31;1728797;82;21010;-74
2021/06/13 00:29:03;;;;;;;6.97;4.58;;;;;;;14.21;96.58;98550.39;1724316;82;21639;-75
2021/06/13 00:31:30;;;;;;;12.82;5.17;;;;;;;14.18;96.53;98551.70;1721933;82;20946;-74
2021/06/13 00:33:57;;;;;;;10.45;4.80;;;;;;;14.16;96.77;98545.74;1732125;81;21208;-74
2021/06/13 00:36:25;;;;;;;5.67;4.10;;;;;;;14.15;96.94;98546.91;1721985;82;20946;-74
2021/06/13 00:38:51;;;;;;;10.00;6.20;;;;;;;14.15;96.97;98541.38;1734457;81;20995;-74
2021/06/13 00:41:19;;;;;;;6.47;4.50;;;;;;;14.15;96.88;98542.18;1731011;81;21062;-72
2021/06/13 00:43:47;;;;;;;8.38;5.20;;;;;;;14.13;96.93;98540.37;1728931;82;21091;-72
2021/06/13 00:46:13;;;;;;;8.35;5.50;;;;;;;14.13;97.04;98536.23;1724489;82;21065;-72
2021/06/13 00:48:39;;;;;;;9.18;5.40;;;;;;;14.14;97.25;98534.27;1729080;80;21901;-72
2021/06/13 00:51:06;;;;;;;5.75;5.10;;;;;;;14.17;97.86;98531.58;1733781;80;20932;-72
2021/06/13 00:53:35;;;;;;;11.12;6.00;;;;;;;14.25;98.38;98535.28;1742408;81;20947;-72
2021/06/13 00:56:03;;;;;;;12.63;5.42;;;;;;;14.29;98.07;98527.87;1716917;82;21433;-72
2021/06/13 00:58:31;;;;;;;10.20;4.92;;;;;;;14.30;97.76;98528.08;1730968;82;21405;-72
2021/06/13 01:00:58;;;;;;;9.60;4.80;;;;;;;14.31;97.52;98522.78;1741619;82;21124;-73
2021/06/13 01:03:25;;;;;;;7.75;5.10;;;;;;;14.30;97.38;98521.77;1722163;82;21133;-72
2021/06/13 01:05:52;;;;;;;7.55;6.05;;;;;;;14.28;96.89;98523.52;1727383;81;21109;-75
2021/06/13 01:08:44;;;;;;;11.33;5.40;;;;;;;14.25;97.22;98518.72;1668617;80;21122;-75
2021/06/13 01:11:29;;;;;;;6.03;4.67;;;;;;;14.23;97.15;98516.91;1730730;82;21042;-74
2021/06/13 01:14:30;;;;;;;9.23;5.92;;;;;;;14.19;96.70;98518.22;1719054;81;21246;-76
2021/06/13 01:17:21;;;;;;;8.28;5.85;;;;;;;14.13;96.64;98514.73;1695819;82;21093;-75
2021/06/13 01:20:22;;;;;;;9.20;5.40;;;;;;;14.07;96.72;98512.05;1735572;81;20896;-76
2021/06/13 01:23:35;;;;;;;11.68;5.78;;;;;;;14.00;96.85;98509.94;1713455;82;21154;-75
2021/06/13 01:26:30;;;;;;;13.95;5.92;;;;;;;13.95;97.02;98507.47;1723751;81;21010;-75
2021/06/13 01:29:05;;;;;;;7.55;5.50;;;;;;;13.90;97.22;98500.86;1734494;81;21112;-74
2021/06/13 01:31:43;;;;;;;9.90;6.30;;;;;;;13.85;97.36;98497.04;1726264;82;20975;-74
2021/06/13 01:34:18;;;;;;;11.03;6.30;;;;;;;13.81;97.34;98492.83;1703566;82;21008;-74
2021/06/13 01:36:45;;;;;;;11.48;6.67;;;;;;;13.77;97.45;98492.53;1718491;82;21038;-74
2021/06/13 01:39:16;;;;;;;8.43;6.00;;;;;;;13.74;97.43;98491.30;1728061;82;21530;-73
2021/06/13 01:41:43;;;;;;;9.58;6.15;;;;;;;13.71;97.60;98487.88;1727805;82;21081;-74
2021/06/13 01:44:09;;;;;;;10.00;6.28;;;;;;;13.66;97.57;98482.66;1726353;82;21578;-74
2021/06/13 01:46:40;;;;;;;6.47;5.58;;;;;;;13.63;97.68;98486.13;1642954;83;20920;-72
2021/06/13 01:49:07;;;;;;;15.20;5.50;;;;;;;13.60;97.76;98488.23;1737291;82;20991;-72
2021/06/13 01:51:37;;;;;;;8.33;6.25;;;;;;;13.60;98.40;98485.48;1731501;82;21547;-72
2021/06/13 01:54:05;;;;;;;8.23;6.00;;;;;;;13.64;98.99;98473.94;1719895;81;21162;-73
2021/06/13 01:56:41;;;;;;;9.68;6.37;;;;;;;13.65;98.83;98478.88;1735131;81;21055;-72
2021/06/13 01:59:08;;;;;;;7.50;5.95;;;;;;;13.72;99.80;98474.89;1732383;82;20877;-72
2021/06/13 02:01:39;;;;;;;14.40;6.78;;;;;;;13.83;100.00;98473.16;1733415;82;20901;-72
2021/06/13 02:04:06;;;;;;;11.00;7.45;;;;;;;13.93;100.00;98473.92;1728633;82;21020;-72
2021/06/13 02:06:47;;;;;;;11.60;7.42;;;;;;;14.02;100.00;98478.64;1727522;82;21808;-73
2021/06/13 02:09:14;;;;;;;13.43;7.20;;;;;;;14.11;100.00;98470.14;1692209;81;21067;-73
2021/06/13 02:11:43;;;;;;;14.83;8.15;;;;;;;14.19;100.00;98476.02;1745108;81;20896;-73
2021/06/13 02:14:10;;;;;;;13.35;7.97;;;;;;;14.26;100.00;98468.45;1730819;82;20963;-73
2021/06/13 02:16:40;;;;;;;15.60;7.45;;;;;;;14.32;100.00;98471.92;1728057;80;20952;-73
2021/06/13 02:19:08;;;;;;;14.55;7.47;;;;;;;14.37;100.00;98463.92;1731525;81;21132;-72
2021/06/13 02:21:36;;;;;;;9.83;7.35;;;;;;;14.42;99.95;98462.27;1725359;81;21006;-74
2021/06/13 02:24:03;;;;;;;8.98;6.15;;;;;;;14.46;99.68;98451.48;1743334;81;20976;-75
2021/06/13 02:26:30;;;;;;;12.82;6.55;;;;;;;14.52;99.40;98451.39;1736745;81;21066;-73
2021/06/13 02:28:57;;;;;;;10.90;6.97;;;;;;;14.57;99.07;98446.73;1731696;82;20887;-73
2021/06/13 02:31:30;;;;;;;12.10;7.50;;;;;;;14.61;98.91;98443.44;1733037;82;21160;-72
2021/06/13 02:33:58;;;;;;;8.43;6.92;;;;;;;14.67;99.58;98435.86;1733724;82;20925;-73
2021/06/13 02:36:25;;;;;;;10.38;7.67;;;;;;;14.75;99.59;98439.53;1727893;81;21054;-73
2021/06/13 02:38:58;;;;;;;10.80;6.58;;;;;;;14.85;99.46;98440.30;1735513;81;21004;-72
2021/06/13 02:41:26;;;;;;;9.63;6.17;;;;;;;14.91;99.65;98429.14;1730617;81;26724;-73
2021/06/13 02:43:54;;;;;;;11.80;7.17;;;;;;;15.00;98.82;98428.88;1739449;81;21145;-72
2021/06/13 02:46:22;;;;;;;10.70;6.85;;;;;;;15.03;97.96;98433.05;1728360;81;20975;-73
2021/06/13 02:48:49;;;;;;;9.85;6.53;;;;;;;15.03;97.12;98434.43;1718822;82;21460;-73
2021/06/13 02:51:17;;;;;;;9.95;6.20;;;;;;;15.03;96.56;98441.34;1722600;82;21055;-75
2021/06/13 02:53:45;;;;;;;6.70;5.87;;;;;;;15.04;96.30;98447.08;1728261;82;21006;-74
2021/06/13 02:56:45;;;;;;;14.47;6.22;;;;;;;15.06;95.98;98441.98;1726344;82;21145;-73
2021/06/13 02:59:38;;;;;;;8.55;5.92;;;;;;;15.06;95.56;98434.27;1722280;82;21000;-73
2021/06/13 03:02:08;;;;;;;8.83;6.15;;;;;;;15.07;95.35;98440.02;1702520;83;21463;-74
2021/06/13 03:04:35;;;;;;;7.25;5.45;;;;;;;15.10;95.34;98440.06;1726670;82;21063;-73
2021/06/13 03:07:02;;;;;;;11.20;5.90;;;;;;;15.13;95.15;98434.38;1725673;81;21130;-74
2021/06/13 03:09:32;;;;;;;11.60;6.20;;;;;;;15.15;94.97;98441.72;1729582;81;21132;-73
2021/06/13 03:11:59;;;;;;;9.68;5.80;;;;;;;15.19;94.72;98445.33;1722793;82;21066;-73
2021/06/13 03:14:30;;;;;;;10.10;6.25;;;;;;;15.21;94.65;98436.08;1697221;82;20994;-74
2021/06/13 03:16:58;;;;;;;9.63;6.10;;;;;;;15.25;94.68;98436.13;1726814;82;21414;-74
2021/06/13 03:19:26;;;;;;;10.38;6.60;;;;;;;15.29;94.54;98439.16;1715054;82;21533;-73
2021/06/13 03:21:53;;;;;;;9.33;6.80;;;;;;;15.32;94.02;98430.70;1717310;82;21170;-73
2021/06/13 03:24:21;;;;;;;9.45;6.37;;;;;;;15.34;93.96;98426.98;1693377;82;21093;-71
2021/06/13 03:26:47;;;;;;;12.68;6.70;;;;;;;15.37;93.78;98422.08;1698683;82;21082;-72
2021/06/13 03:29:15;;;;;;;10.95;6.33;;;;;;;15.37;93.60;98424.27;1744118;81;20970;-72
2021/06/13 03:31:44;;;;;;;9.08;6.70;;;;;;;15.39;93.46;98427.45;1731111;81;20979;-70
2021/06/13 03:34:11;;;;;;;13.20;7.87;;;;;;;15.42;93.24;98418.41;1734593;81;21956;-73
2021/06/13 03:36:37;;;;;;;16.07;6.40;;;;;;;15.47;93.00;98417.28;1742135;81;20849;-73
2021/06/13 03:39:04;;;;;;;11.20;6.45;;;;;;;15.50;92.80;98428.39;1717809;82;21491;-71
2021/06/13 03:41:32;;;;;;;11.80;7.22;;;;;;;15.54;92.34;98428.44;1731311;82;21007;-73
2021/06/13 03:43:58;;;;;;;10.28;7.42;;;;;;;15.59;92.27;98425.38;1715771;82;20896;-72
2021/06/13 03:46:24;;;;;;;8.88;6.53;;;;;;;15.64;92.30;98424.21;1704385;83;21173;-72
2021/06/13 03:48:55;;;;;;;11.75;5.42;;;;;;;15.70;92.40;98427.66;1729266;82;20944;-72
2021/06/13 03:51:21;;;;;;;12.78;7.12;;;;;;;15.75;92.05;98421.79;1729862;82;21101;-73
2021/06/13 03:53:48;;;;;;;9.28;5.78;;;;;;;15.80;91.84;98421.45;1734053;82;21581;-72
2021/06/13 03:56:17;;;;;;;10.93;6.15;;;;;;;15.88;91.55;98425.69;1728669;82;21113;-72
2021/06/13 03:58:44;;;;;;;13.48;6.40;;;;;;;15.92;90.96;98419.61;1733599;82;21147;-77
2021/06/13 04:01:16;;;;;;;9.53;6.10;;;;;;;15.96;90.70;98424.59;1731976;82;20901;-77
2021/06/13 04:03:47;;;;;;;7.78;5.50;;;;;;;16.00;90.30;98424.05;1734590;82;20947;-82
2021/06/13 04:06:14;;;;;;;9.43;5.95;;;;;;;16.03;89.40;98425.48;1718059;82;21157;-81
2021/06/13 04:08:41;;;;;;;9.30;6.17;;;;;;;16.06;89.33;98423.92;1705501;81;21561;-83
2021/06/13 04:11:08;;;;;;;8.23;5.20;;;;;;;16.12;89.40;98426.56;1733979;82;21080;-77
2021/06/13 04:13:36;;;;;;;8.60;5.40;;;;;;;16.18;89.12;98419.48;1741570;81;20975;-79
2021/06/13 04:16:08;;;;;;;7.90;5.67;;;;;;;16.24;88.57;98420.73;1731346;81;21105;-79
2021/06/13 04:18:35;;;;;;;8.03;5.35;;;;;;;16.31;88.22;98422.18;1735545;81;21059;-74
2021/06/13 04:21:05;;;;;;;8.05;5.85;;;;;;;16.39;88.25;98418.30;1741051;82;21031;-71
2021/06/13 04:23:32;;;;;;;7.37;5.12;;;;;;;16.46;87.83;98420.34;1710759;82;21091;-74
2021/06/13 04:25:59;;;;;;;9.95;5.80;;;;;;;16.54;88.07;98419.23;1719792;81;21432;-74
2021/06/13 04:28:25;;;;;;;9.70;5.92;;;;;;;16.65;88.06;98422.92;1721162;82;20997;-73
2021/06/13 04:31:11;;;;;;;9.03;6.03;;;;;;;16.73;86.82;98414.08;1708129;82;21353;-75
2021/06/13 04:33:36;;;;;;;8.50;5.78;;;;;;;16.81;85.47;98410.16;1683476;83;21082;-74
2021/06/13 04:36:04;;;;;;;11.93;6.55;;;;;;;16.90;86.00;98416.16;1723954;80;21112;-73
2021/06/13 04:38:30;;;;;;;12.18;6.08;;;;;;;16.99;84.93;98420.78;1712279;82;20972;-73
2021/06/13 04:40:56;;;;;;;7.30;5.72;;;;;;;17.09;84.76;98417.88;1718117;81;21073;-75
2021/06/13 04:43:23;;;;;;;10.88;5.87;;;;;;;17.21;84.55;98423.12;1710638;82;21043;-74
2021/06/13 04:45:49;;;;;;;9.75;5.75;;;;;;;17.32;84.37;98415.66;1724488;81;20957;-74
2021/06/13 04:48:17;;;;;;;10.68;6.40;;;;;;;17.45;83.75;98415.50;1727511;82;21701;-75
2021/06/13 04:50:44;;;;;;;11.18;5.45;;;;;;;17.58;83.07;98412.39;1710095;81;21597;-74
2021/06/13 04:53:54;;;;;;;10.28;5.70;;;;;;;17.67;81.83;98413.66;1710917;82;21012;-74
2021/06/13 04:56:44;;;;;;;8.03;5.20;;;;;;;17.77;81.80;98405.17;1697727;81;21047;-72
2021/06/13 04:59:10;;;;;;;8.73;4.97;;;;;;;17.93;80.37;98402.02;1704189;82;21720;-72
2021/06/13 05:01:42;;;;;;;6.60;5.55;;;;;;;18.04;79.86;98402.25;1717769;81;21114;-72
2021/06/13 05:04:08;;;;;;;6.50;5.15;;;;;;;18.15;78.58;98410.61;1712100;81;21081;-72
2021/06/13 05:06:35;;;;;;;7.53;5.05;;;;;;;18.24;78.82;98399.92;1715564;82;21074;-74
2021/06/13 05:09:01;;;;;;;8.33;4.62;;;;;;;18.35;77.68;98391.01;1717035;83;20895;-73
2021/06/13 05:11:28;;;;;;;7.70;4.72;;;;;;;18.48;78.11;98394.20;1727867;81;20951;-77
2021/06/13 05:13:54;;;;;;;9.33;4.62;;;;;;;18.60;77.30;98394.38;1729959;81;21129;-72
2021/06/13 05:16:21;;;;;;;5.58;4.20;;;;;;;18.74;77.01;98398.58;1719245;82;21480;-74
2021/06/13 05:18:47;;;;;;;5.00;4.37;;;;;;;18.89;76.26;98394.59;1731283;81;20872;-73
2021/06/13 05:21:15;;;;;;;8.38;4.87;;;;;;;19.04;73.35;98403.13;1722709;81;20909;-73
2021/06/13 05:23:41;;;;;;;8.58;4.05;;;;;;;19.19;72.92;98394.13;1724577;81;21452;-75
2021/06/13 05:26:08;;;;;;;11.08;3.92;;;;;;;19.33;72.36;98389.12;1726131;81;21130;-77
2021/06/13 05:28:34;;;;;;;7.25;4.08;;;;;;;19.45;71.35;98392.27;1726662;82;21657;-72
2021/06/13 05:31:00;;;;;;;7.37;3.92;;;;;;;19.57;69.42;98388.88;1725656;80;21010;-77
2021/06/13 05:33:27;;;;;;;6.03;3.60;;;;;;;19.65;69.72;98387.03;1718471;81;20988;-77
2021/06/13 05:35:54;;;;;;;6.70;4.05;;;;;;;19.75;69.24;98393.75;1720006;82;21047;-76
2021/06/13 05:38:20;;;;;;;7.28;4.10;;;;;;;19.85;68.96;98390.13;1719549;82;21106;-76
2021/06/13 05:40:48;;;;;;;8.38;4.53;;;;;;;19.93;68.68;98386.70;1733622;81;21511;-84
2021/06/13 05:43:16;;;;;;;6.97;4.53;;;;;;;20.00;68.83;98393.03;1729047;81;20995;-82
2021/06/13 05:45:42;;;;;;;7.05;4.28;;;;;;;20.04;68.38;98389.62;1719051;82;21124;-80
2021/06/13 05:48:09;;;;;;;5.17;4.53;;;;;;;20.09;67.55;98392.59;1723312;81;21148;-79
2021/06/13 05:50:36;;;;;;;6.47;4.55;;;;;;;20.13;68.09;98405.11;1717424;83;21049;-75
2021/06/13 05:53:02;;;;;;;8.43;4.08;;;;;;;20.16;68.17;98395.34;1730132;81;20936;-73
2021/06/13 05:55:29;;;;;;;6.33;4.45;;;;;;;20.20;69.45;98395.31;1733997;82;20884;-77
2021/06/13 05:57:56;;;;;;;8.60;4.58;;;;;;;20.27;68.36;98389.66;1732411;81;20980;-75
2021/06/13 06:00:29;;;;;;;11.93;4.72;;;;;;;20.31;68.30;98393.22;1724647;81;21618;-75
2021/06/13 06:02:55;;;;;;;10.85;4.35;;;;;;;20.38;68.18;98389.02;1730325;81;21132;-81
2021/06/13 06:05:22;;;;;;;9.48;4.08;;;;;;;20.49;67.57;98386.95;1711243;82;20991;-82
2021/06/13 06:07:52;;;;;;;4.58;3.45;;;;;;;20.59;67.64;98389.47;1734691;82;21424;-79
2021/06/13 06:10:21;;;;;;;23.83;13.15;;;;;;;20.70;66.47;98388.78;1741540;81;20952;-74
2021/06/13 06:12:49;;;;;;;39.88;21.77;;;;;;;20.80;67.85;98392.05;1713477;81;21135;-73
2021/06/13 06:15:18;;;;;;;8.70;5.10;;;;;;;20.94;67.97;98394.72;1723270;82;21219;-73
2021/06/13 06:17:46;;;;;;;3.87;2.75;;;;;;;21.10;65.91;98389.98;1704764;82;21019;-72
2021/06/13 06:20:14;;;;;;;6.15;3.37;;;;;;;21.18;64.37;98394.30;1721197;81;21073;-72
2021/06/13 06:22:40;;;;;;;6.70;2.80;;;;;;;21.22;64.38;98395.69;1727105;81;20997;-74
2021/06/13 06:25:08;;;;;;;3.12;2.65;;;;;;;21.25;62.50;98400.44;1715431;81;21020;-73
2021/06/13 06:27:35;;;;;;;5.53;2.60;;;;;;;21.25;64.23;98404.62;1720637;82;21312;-74
2021/06/13 06:30:05;;;;;;;7.78;4.15;;;;;;;21.28;63.33;98396.81;1709963;81;21525;-74
2021/06/13 06:32:31;;;;;;;5.58;3.62;;;;;;;21.29;63.46;98403.98;1718685;82;21069;-72
2021/06/13 06:34:58;;;;;;;3.92;2.60;;;;;;;21.29;62.44;98403.98;1701781;81;21526;-72
2021/06/13 06:37:24;;;;;;;3.87;2.85;;;;;;;21.27;63.46;98400.81;1723841;82;20970;-73
2021/06/13 06:39:52;;;;;;;5.15;2.50;;;;;;;21.29;63.68;98403.98;1722243;82;21194;-79
2021/06/13 06:42:19;;;;;;;5.30;2.72;;;;;;;21.36;63.69;98410.28;1725159;82;21002;-72
2021/06/13 06:44:45;;;;;;;4.50;2.80;;;;;;;21.48;63.33;98401.16;1723527;82;21102;-70
2021/06/13 06:47:12;;;;;;;4.45;2.60;;;;;;;21.56;62.23;98406.25;1738151;82;20951;-73
2021/06/13 06:49:38;;;;;;;5.87;3.00;;;;;;;21.63;63.77;98408.95;1727700;80;21427;-78
2021/06/13 06:52:06;;;;;;;5.50;2.98;;;;;;;21.83;62.97;98409.72;1731448;82;21543;-83
2021/06/13 06:54:33;;;;;;;7.12;2.83;;;;;;;21.98;61.88;98406.91;1729182;82;20983;-79
2021/06/13 06:57:00;;;;;;;2.95;2.20;;;;;;;22.09;60.73;98407.59;1721928;81;21712;-77
2021/06/13 06:59:26;;;;;;;4.85;2.90;;;;;;;22.17;61.01;98418.86;1737215;81;20990;-76
2021/06/13 07:01:52;;;;;;;4.00;3.05;;;;;;;22.25;60.26;98411.95;1734245;81;21042;-74
2021/06/13 07:04:19;;;;;;;4.65;3.17;;;;;;;22.23;60.41;98414.98;1733995;80;21068;-82
2021/06/13 07:06:47;;;;;;;3.95;3.15;;;;;;;22.12;60.91;98417.13;1724775;82;20924;-83
2021/06/13 07:09:13;;;;;;;6.37;3.00;;;;;;;21.95;61.27;98422.50;1726238;82;20982;-82
2021/06/13 07:11:42;;;;;;;4.55;3.20;;;;;;;21.83;61.37;98421.69;1718365;82;20971;-75
2021/06/13 07:14:08;;;;;;;5.05;2.92;;;;;;;21.81;62.30;98419.12;1727994;82;21048;-72
2021/06/13 07:16:34;;;;;;;5.50;3.12;;;;;;;21.91;63.24;98411.22;1731777;82;21129;-73
2021/06/13 07:19:02;;;;;;;3.00;2.60;;;;;;;22.02;61.86;98422.44;1733133;82;20977;-86
2021/06/13 07:21:29;;;;;;;3.90;3.00;;;;;;;22.11;61.35;98412.15;1727786;82;21019;-87
2021/06/13 07:23:56;;;;;;;7.80;3.20;;;;;;;22.21;60.54;98422.39;1724997;82;21024;-75
2021/06/13 07:26:22;;;;;;;7.40;3.67;;;;;;;22.28;61.47;98420.11;1731791;81;21050;-72
2021/06/13 07:28:49;;;;;;;4.08;3.42;;;;;;;22.37;61.82;98415.58;1732573;82;21757;-83
2021/06/13 07:31:17;;;;;;;5.50;3.30;;;;;;;22.47;61.96;98420.03;1738226;82;21031;-81
2021/06/13 07:33:43;;;;;;;5.28;3.40;;;;;;;22.60;61.38;98427.39;1738313;82;21550;-73
2021/06/13 07:36:09;;;;;;;5.20;3.85;;;;;;;22.69;61.46;98440.84;1726723;82;21037;-72
2021/06/13 07:38:37;;;;;;;10.68;4.40;;;;;;;22.70;60.65;98441.81;1726719;82;21432;-81
2021/06/13 07:41:03;;;;;;;6.10;4.33;;;;;;;22.70;60.36;98443.82;1726450;80;20972;-82
2021/06/13 07:43:30;;;;;;;4.60;3.90;;;;;;;22.62;59.37;98439.55;1726917;82;21503;-82
2021/06/13 07:45:56;;;;;;;4.78;3.37;;;;;;;22.40;60.70;98444.69;1726920;82;20940;-82
2021/06/13 07:48:24;;;;;;;8.30;4.20;;;;;;;22.27;60.65;98447.27;1720049;82;21545;-86
2021/06/13 07:50:50;;;;;;;5.65;3.65;;;;;;;22.32;61.80;98446.01;1721101;82;20948;-81
2021/06/13 07:53:17;;;;;;;4.80;3.67;;;;;;;22.55;61.88;98446.65;1736077;81;21117;-86
2021/06/13 07:55:43;;;;;;;5.20;3.77;;;;;;;22.74;59.11;98443.16;1732936;81;21056;-83
2021/06/13 07:58:11;;;;;;;5.03;3.75;;;;;;;22.82;60.50;98444.66;1724898;82;21050;-81
2021/06/13 08:00:38;;;;;;;13.22;4.35;;;;;;;22.96;60.97;98455.63;1736930;81;20949;-78
2021/06/13 08:03:06;;;;;;;3.85;3.25;;;;;;;23.05;59.41;98453.69;1728187;82;21001;-85
2021/06/13 08:05:32;;;;;;;4.58;3.58;;;;;;;23.05;60.46;98455.88;1726250;83;21136;-77
2021/06/13 08:08:02;;;;;;;9.75;4.25;;;;;;;23.20;60.92;98450.80;1720588;82;20928;-70
2021/06/13 08:10:28;;;;;;;5.97;3.20;;;;;;;23.46;59.07;98451.93;1732478;82;20899;-67
2021/06/13 08:12:55;;;;;;;4.22;3.62;;;;;;;23.47;58.23;98464.72;1724886;80;20896;-72
2021/06/13 08:15:21;;;;;;;4.90;3.83;;;;;;;23.33;57.17;98465.77;1726171;81;21495;-78
2021/06/13 08:17:50;;;;;;;3.85;3.22;;;;;;;23.06;57.73;98470.66;1721827;82;21545;-77
2021/06/13 08:20:16;;;;;;;8.10;4.35;;;;;;;22.78;59.12;98464.88;1733438;81;21497;-79
2021/06/13 08:22:43;;;;;;;8.23;3.90;;;;;;;22.59;60.44;98473.95;1728581;82;21562;-85
2021/06/13 08:25:11;;;;;;;4.58;3.35;;;;;;;22.65;60.01;98470.88;1728688;82;20995;-84
2021/06/13 08:27:37;;;;;;;6.75;3.02;;;;;;;22.90;60.37;98471.31;1733092;82;21023;-72
2021/06/13 08:30:07;;;;;;;5.28;2.77;;;;;;;23.20;58.59;98478.00;1730086;80;21134;-74
2021/06/13 08:32:33;;;;;;;2.65;2.30;;;;;;;23.35;58.90;98480.73;1722718;82;20949;-80
2021/06/13 08:34:59;;;;;;;10.05;3.75;;;;;;;23.52;56.45;98478.23;1725712;82;20924;-75
2021/06/13 08:37:26;;;;;;;2.42;2.00;;;;;;;23.60;56.70;98474.11;1737505;81;20944;-76
2021/06/13 08:39:52;;;;;;;1.70;1.60;;;;;;;23.42;55.42;98484.02;1725725;81;21581;-76
2021/06/13 08:42:19;;;;;;;2.75;1.52;;;;;;;22.91;56.02;98479.89;1727890;81;21629;-82
2021/06/13 08:44:46;;;;;;;2.92;1.50;;;;;;;22.39;57.67;98485.84;1738496;81;21492;-86
2021/06/13 08:47:16;;;;;;;3.65;1.37;;;;;;;22.01;58.40;98492.69;1739716;82;20865;-79
2021/06/13 08:49:42;;;;;;;3.98;1.70;;;;;;;21.66;59.36;98490.52;1735958;81;21009;-69
2021/06/13 08:52:09;;;;;;;2.15;1.60;;;;;;;21.41;60.50;98493.55;1741814;81;21510;-70
2021/06/13 08:54:37;;;;;;;2.20;1.40;;;;;;;21.37;61.86;98482.26;1741500;82;21087;-83
2021/06/13 08:57:05;;;;;;;1.75;1.62;;;;;;;21.46;61.45;98483.94;1728218;81;21495;-75
2021/06/13 08:59:32;;;;;;;2.65;1.60;;;;;;;21.58;61.35;98491.80;1720679;82;21013;-69
2021/06/13 09:01:59;;;;;;;2.42;1.50;;;;;;;21.56;60.95;98489.23;1725946;82;21500;-68
2021/06/13 09:04:25;;;;;;;1.90;1.55;;;;;;;21.38;61.64;98504.75;1729056;83;20952;-77
2021/06/13 09:06:53;;;;;;;2.37;1.95;;;;;;;21.21;62.81;98504.30;1724517;82;21055;-81
2021/06/13 09:09:26;;;;;;;3.62;2.20;;;;;;;20.99;63.55;98510.05;1729674;82;21474;-76
2021/06/13 09:12:03;;;;;;;3.67;2.05;;;;;;;20.81;64.43;98510.78;1737344;82;21007;-75
2021/06/13 09:14:32;;;;;;;5.25;2.27;;;;;;;20.64;64.68;98521.48;1730238;82;21102;-69
2021/06/13 09:17:05;;;;;;;3.87;2.87;;;;;;;20.63;65.35;98525.47;1711709;82;20969;-76
2021/06/13 09:19:31;;;;;;;6.40;1.80;;;;;;;20.89;65.23;98522.08;1652096;85;21091;-68
2021/06/13 09:22:00;;;;;;;2.37;1.67;;;;;;;21.14;64.26;98523.30;1681791;83;21166;-71
2021/06/13 09:24:27;;;;;;;3.25;1.42;;;;;;;21.29;61.98;98522.61;1619018;85;21013;-71
2021/06/13 09:26:55;;;;;;;1.07;0.98;;;;;;;21.32;62.20;98523.18;1689094;83;21008;-70
2021/06/13 09:29:22;;;;;;;6.78;1.30;;;;;;;21.35;62.55;98515.37;1684653;83;21031;-70
2021/06/13 09:32:07;;;;;;;2.25;1.45;;;;;;;21.50;59.79;98527.97;1725798;82;21375;-69
2021/06/13 09:34:34;;;;;;;1.98;1.00;;;;;;;21.55;58.97;98521.15;1734171;82;20948;-70
2021/06/13 09:37:04;;;;;;;1.80;1.00;;;;;;;21.67;58.48;98524.22;1730401;82;21570;-70
2021/06/13 09:39:32;;;;;;;1.02;0.95;;;;;;;21.82;60.04;98519.27;1733136;82;21156;-67
2021/06/13 09:42:08;;;;;;;2.85;0.88;;;;;;;22.19;60.78;98526.05;1733361;82;21510;-67
2021/06/13 09:44:36;;;;;;;3.27;1.22;;;;;;;22.49;57.40;98512.69;1706054;81;22313;-67
2021/06/13 09:47:03;;;;;;;1.75;0.60;;;;;;;22.73;56.57;98515.10;1733475;81;21040;-68
2021/06/13 09:49:46;;;;;;;1.57;0.78;;;;;;;22.73;53.23;98528.30;1721460;81;21013;-68
2021/06/13 09:52:12;;;;;;;2.75;0.70;;;;;;;22.46;53.28;98531.70;1721937;81;21225;-68
2021/06/13 09:54:39;;;;;;;2.80;0.88;;;;;;;22.11;55.25;98536.52;1699441;82;21228;-68
2021/06/13 09:57:09;;;;;;;1.40;0.72;;;;;;;21.99;56.41;98532.23;1681609;83;21119;-68
2021/06/13 09:59:35;;;;;;;6.28;1.30;;;;;;;22.06;56.85;98532.78;1712748;82;21080;-69
2021/06/13 10:02:06;;;;;;;2.27;0.78;;;;;;;22.31;55.51;98525.50;1710233;81;21185;-69
2021/06/13 10:04:36;;;;;;;2.55;0.80;;;;;;;22.49;53.93;98529.46;1710644;81;21034;-70
2021/06/13 10:07:21;;;;;;;5.92;1.00;;;;;;;22.39;53.65;98524.98;1696907;82;21483;-70
2021/06/13 10:09:54;;;;;;;0.82;0.70;;;;;;;22.33;54.95;98516.88;1706020;82;21178;-67
2021/06/13 10:12:22;;;;;;;2.83;0.93;;;;;;;22.44;53.28;98523.73;1722632;81;21509;-68
2021/06/13 10:14:50;;;;;;;2.37;0.60;;;;;;;22.42;52.65;98504.39;1714175;81;21437;-67
2021/06/13 10:17:17;;;;;;;0.72;0.50;;;;;;;22.35;51.95;98506.06;1708526;82;20957;-68
2021/06/13 10:19:48;;;;;;;0.85;0.68;;;;;;;22.27;53.30;98504.58;1707464;82;21491;-68
2021/06/13 10:22:17;;;;;;;2.67;0.88;;;;;;;22.29;53.12;98511.94;1708739;82;21148;-69
2021/06/13 10:24:45;;;;;;;1.27;0.78;;;;;;;22.24;53.86;98512.40;1702665;82;21539;-69
2021/06/13 10:27:16;;;;;;;0.90;0.70;;;;;;;22.11;54.17;98525.34;1703892;82;21523;-70
2021/06/13 10:29:44;;;;;;;1.70;1.00;;;;;;;21.97;54.65;98532.45;1699626;82;21160;-69
2021/06/13 10:32:12;;;;;;;6.33;1.17;;;;;;;21.76;55.36;98543.28;1720272;82;21095;-68
2021/06/13 10:34:39;;;;;;;1.45;0.90;;;;;;;21.44;56.94;98539.39;1705017;82;21094;-69
2021/06/13 10:37:10;;;;;;;3.95;1.02;;;;;;;21.18;59.02;98538.62;1713390;81;21571;-68
2021/06/13 10:39:38;;;;;;;9.83;1.40;;;;;;;21.20;59.27;98552.95;1713366;82;21025;-68
2021/06/13 10:42:13;;;;;;;4.17;1.10;;;;;;;21.24;58.96;98554.55;1725290;81;21048;-68
2021/06/13 10:44:49;;;;;;;1.65;0.62;;;;;;;21.23;57.73;98536.81;1692328;83;21004;-67
2021/06/13 10:47:16;;;;;;;0.82;0.62;;;;;;;21.12;57.78;98550.02;1713113;81;21132;-70
2021/06/13 10:49:49;;;;;;;2.83;0.68;;;;;;;21.02;57.58;98559.45;1703051;82;21077;-67
2021/06/13 10:52:23;;;;;;;0.65;0.42;;;;;;;20.91;55.37;98551.76;1705581;82;21559;-67
2021/06/13 10:54:55;;;;;;;0.50;0.50;;;;;;;20.92;55.46;98544.18;1698931;82;20960;-67
2021/06/13 10:57:27;;;;;;;0.98;0.50;;;;;;;21.00;56.96;98546.52;1716187;82;21217;-69
2021/06/13 11:00:00;;;;;;;1.60;0.68;;;;;;;21.13;55.14;98537.06;1709052;82;21135;-71
2021/06/13 11:02:40;;;;;;;1.02;0.60;;;;;;;21.17;55.97;98553.77;1710308;82;21070;-69
2021/06/13 11:05:08;;;;;;;2.33;0.47;;;;;;;21.15;55.21;98549.20;1700842;82;20941;-69
2021/06/13 11:07:53;;;;;;;2.40;0.70;;;;;;;20.93;55.56;98552.14;1729521;82;20941;-69
2021/06/13 11:10:19;;;;;;;0.75;0.53;;;;;;;20.79;55.91;98555.66;1720521;82;20894;-68
2021/06/13 11:13:01;;;;;;;2.37;0.80;;;;;;;20.74;56.32;98549.30;1716251;81;20928;-68
2021/06/13 11:15:40;;;;;;;1.37;0.75;;;;;;;20.78;57.24;98538.73;1708141;81;20960;-69
2021/06/13 11:18:23;;;;;;;1.22;0.95;;;;;;;20.89;56.19;98531.84;1713482;81;21019;-69
2021/06/13 11:21:08;;;;;;;0.70;0.50;;;;;;;20.85;55.89;98525.50;1715966;82;21528;-68
2021/06/13 11:23:40;;;;;;;0.75;0.55;;;;;;;20.72;57.84;98516.05;1715301;81;21022;-68
2021/06/13 11:26:10;;;;;;;6.85;0.95;;;;;;;20.55;57.77;98513.56;1690187;82;21152;-68
2021/06/13 11:28:42;;;;;;;3.45;0.70;;;;;;;20.46;58.59;98517.39;1709089;82;20944;-68
2021/06/13 11:31:17;;;;;;;0.95;0.60;;;;;;;20.52;58.54;98527.52;1703221;82;21455;-68
2021/06/13 11:33:47;;;;;;;0.82;0.60;;;;;;;20.53;58.00;98531.89;1704514;82;20990;-68
2021/06/13 11:36:29;;;;;;;0.80;0.70;;;;;;;20.39;57.40;98539.73;1703928;82;21014;-68
2021/06/13 11:39:12;;;;;;;0.60;0.50;;;;;;;20.28;58.39;98539.74;1716603;81;21201;-70
2021/06/13 11:41:45;;;;;;;0.95;0.70;;;;;;;20.16;57.64;98548.58;1727849;81;20993;-68
2021/06/13 11:44:23;;;;;;;2.05;0.80;;;;;;;20.11;58.81;98548.39;1718065;82;21480;-69